AirNav   TITAN Aviation Fuels
 
 983 users online  

0WN0 Rucilla's Roost Airport
Sequim, Washington, USA

GOING TO SEQUIM?


FAA INFORMATION EFFECTIVE 22 APRIL 2021

Location

FAA Identifier: 0WN0
Lat/Long: 48-08-14.2600N 123-06-45.7900W
48-08.237667N 123-06.763167W
48.1372944,-123.1127194
(estimated)
Elevation: 15 ft. / 5 m (estimated)
From city: 4 miles N of SEQUIM, WA
Time zone: UTC -7 (UTC -8 during Standard Time)
Zip code: 98382

Airport Operations

Airport use: Private use. Permission required prior to landing
Activation date: 04/2006
Control tower: no
ARTCC: SEATTLE CENTER
FSS: SEATTLE FLIGHT SERVICE STATION
Attendance: UNATNDD
Wind indicator: yes
Segmented circle: no

Airport Communications

WX AWOS-3P at NOW (12 nm W): 118.325 (360-457-7529)
WX AWOS-3P at 0S9 (13 nm E): 119.025 (360-379-1199)
WX ASOS at CLM (16 nm W): 135.175 (360-457-1070)
WX AWOS-3 at OKH (19 nm E): 132.775 (360-675-8431)

Nearby radio navigation aids

VOR radial/distance  VOR name  Freq  Var
CVVr228/16.8PENN COVE VOR/DME117.2019E
PAEr271/36.0PAINE VOR/DME110.6020E
YYJr140/38.4VICTORIA VOR/DME113.7017E

 
NDB name  Hdg/Dist  Freq  Var  ID
EDIZ HOOK074/11.633817ENOW -. --- .--
FRIDAY HARBOR172/22.828417EFHR ..-. .... .-.
SKAGIT/BAY VIEW218/34.124016EBVS -... ...- ...

Airport Services

Runway Information

Runway 9/27

Dimensions: 1050 x 28 ft. / 320 x 9 m
Surface: turf
RUNWAY 9  RUNWAY 27
Traffic pattern: leftleft

Airport Ownership and Management from official FAA records

Ownership: Privately-owned
Owner: JOHN DOLAN
302 PRIMROSE LN.
SEQUIM, WA 98328
Phone 206-612-9906
Manager: JOHN DOLAN
302 PRIMROSE LN.
SEQUIM, WA 98382
Phone 206-612-9906

Additional Remarks

FOR CD CTC SEATTLE ARTCC AT 253-351-3694.

Instrument Procedures

There are no published instrument procedures at 0WN0.

Some nearby airports with instrument procedures:

KNOW - Port Angeles Coast Guard Air Station Airport (12 nm W)
0S9 - Jefferson County International Airport (13 nm E)
KCLM - William R Fairchild International Airport (16 nm W)
KOKH - AJ Eisenberg Airport (19 nm E)
KNUW - Whidbey Island Naval Air Station (Ault Field) (22 nm NE)
 
Loc | Ops | Rwys | IFR | FBO | Links
Com | Nav | Svcs | Stats | Notes
Area around 0WN0 (Rucilla's Roost Airport)
 
Road maps at: MapQuest Bing Google
 
Aerial photo
No photo
 
Sectional chart

 
Airport distance calculator
Flying to Rucilla's Roost Airport? Find the distance to fly.

From to 0WN0

Sunrise and sunset
Times for 14-May-2021
 Local
(UTC-7)
 Zulu
(UTC)
Morning civil twilight04:5811:58
Sunrise05:3512:35
Sunset20:4203:42
Evening civil twilight21:1904:19

Current date and time
Zulu (UTC)  15-May-2021 00:57:43
Local (UTC-7)  14-May-2021 17:57:43
 
METAR
K0S9 
13nm E 
150055Z AUTO 32008G14KT 10SM CLR 17/10 A3008 RMK AO2
KCLM 
16nm W 
150053Z AUTO 30011G18KT 270V330 10SM CLR 14/09 A3011 RMK AO2 SLP197 T01440089
CWQK 
18nm NW 
150000Z AUTO 26026KT 11/ RMK AO1 PK WND 27029/2356 SLP181 T0109 56029
CWLM 
19nm NW 
150000Z AUTO 23008KT 14/10 RMK AO1 SLP186 T01430096 57022
CYWH 
19nm NW 
150000Z 21008KT 15SM FEW040 15/10 A3007 RMK CU1 SLP185
KNOW 
20nm W 
150035Z AUTO 28015G20KT 10SM CLR 12/09 A3011 RMK AO2 T01200091
CWYJ 
20nm N 
150000Z AUTO 10002KT 14/10 RMK AO1 SLP189 T01440104 58018
CWPF 
21nm NW 
150045Z AUTO 27007KT 20/07 RMK AO1 SLP179 T02020073 56019
KNUW 
22nm NE 
142356Z 26006KT 10SM FEW000 FEW004 SCT045 SCT250 12/09 A3014 RMK AO2 SLP206 VIS W-NW 3/4 FG FEW000 FG BANK W-NW T01170089 10133 20100 58014
KFHR 
23nm N 
150053Z AUTO 12003KT 10SM CLR 16/11 A3009 RMK AO2 SLP188 T01560106 TSNO
TAF
KCLM 
16nm W 
141723Z 1418/1518 VRB03KT P6SM SKC FM142100 29008KT P6SM SKC FM151000 29004KT 2SM BR OVC001 FM151600 29004KT P6SM SCT005
CYWH 
19nm NW 
142038Z 1421/1504 21007KT P6SM SKC RMK NXT FCST WILL BE ISSUED AT 151415Z
NOTAMs
Click for the latest NOTAMs
NOTAMs are issued by the DoD/FAA and will open in a separate window not controlled by AirNav.

 

 
 

Would you like to see your business listed on this page?

 If your business provides an interesting product or service to pilots, flight crews, aircraft, or users of the Rucilla's Roost Airport, you should consider listing it here.  To start the listing process, click on the button below
 
Add a business
 

Other Pages about Rucilla's Roost Airport

Update a link
 
Copyright © AirNav, LLC. All rights reserved. Privacy Policy  Contact